createdAt,value
2017-07-10T00:01:00.801Z,13.70
2017-07-10T00:03:29.000Z,15.27
2017-07-10T00:05:57.207Z,13.47
2017-07-10T00:08:26.126Z,15.10
2017-07-10T00:10:54.286Z,14.37
2017-07-10T00:13:22.545Z,14.43
2017-07-10T00:15:51.454Z,15.30
2017-07-10T00:18:19.607Z,16.40
2017-07-10T00:20:48.545Z,20.13
2017-07-10T00:23:16.710Z,11.87
2017-07-10T00:25:44.891Z,12.97
2017-07-10T00:28:13.028Z,11.97
2017-07-10T00:30:41.247Z,12.03
2017-07-10T00:33:09.375Z,10.87
2017-07-10T00:35:37.535Z,10.53
2017-07-10T00:38:06.510Z,10.87
2017-07-10T00:40:34.661Z,14.80
2017-07-10T00:43:02.852Z,11.47
2017-07-10T00:45:31.000Z,11.33
2017-07-10T00:47:59.139Z,11.07
2017-07-10T00:50:27.313Z,11.03
2017-07-10T00:52:55.521Z,13.10
2017-07-10T00:55:23.675Z,11.70
2017-07-10T00:57:51.810Z,11.80
2017-07-10T01:00:20.761Z,11.87
2017-07-10T01:02:48.906Z,13.70
2017-07-10T01:05:17.095Z,12.57
2017-07-10T01:07:45.278Z,16.03
2017-07-10T01:10:13.436Z,16.20
2017-07-10T01:12:41.662Z,16.03
2017-07-10T01:15:10.619Z,18.90
2017-07-10T01:17:38.788Z,18.93
2017-07-10T01:20:06.939Z,20.80
2017-07-10T01:22:35.114Z,22.30
2017-07-10T01:25:03.388Z,26.50
2017-07-10T01:27:31.622Z,26.33
2017-07-10T01:30:00.562Z,22.00
2017-07-10T01:32:28.720Z,21.23
2017-07-10T01:34:56.895Z,30.63
2017-07-10T01:37:25.096Z,24.23
2017-07-10T01:39:53.275Z,20.17
2017-07-10T01:42:21.449Z,29.57
2017-07-10T01:44:49.608Z,27.43
2017-07-10T01:47:17.762Z,27.23
2017-07-10T01:49:45.902Z,23.10
2017-07-10T01:52:14.828Z,24.20
2017-07-10T01:54:43.007Z,20.30
2017-07-10T01:57:11.144Z,18.97
2017-07-10T01:59:39.288Z,20.53
2017-07-10T02:02:08.223Z,21.03
2017-07-10T02:04:36.378Z,18.57
2017-07-10T02:07:04.571Z,18.07
2017-07-10T02:09:32.720Z,22.93
2017-07-10T02:12:01.672Z,19.57
2017-07-10T02:14:29.823Z,16.87
2017-07-10T02:16:58.036Z,20.87
2017-07-10T02:19:26.957Z,15.27
2017-07-10T02:21:55.111Z,18.67
2017-07-10T02:24:24.070Z,14.53
2017-07-10T02:26:52.226Z,14.00
2017-07-10T02:29:20.371Z,11.63
2017-07-10T02:31:48.533Z,11.50
2017-07-10T02:34:16.697Z,12.80
2017-07-10T02:36:45.623Z,13.03
2017-07-10T02:39:13.773Z,11.50
2017-07-10T02:41:41.958Z,11.83
2017-07-10T02:44:10.101Z,15.40
2017-07-10T02:46:39.012Z,11.40
2017-07-10T02:49:07.175Z,11.27
2017-07-10T02:51:35.386Z,11.10
2017-07-10T02:54:03.526Z,11.17
2017-07-10T02:56:32.445Z,14.03
2017-07-10T02:59:00.629Z,14.17
2017-07-10T03:01:28.770Z,11.40
2017-07-10T03:03:56.931Z,11.90
2017-07-10T03:06:25.867Z,11.73
2017-07-10T03:08:54.042Z,15.80
2017-07-10T03:11:22.255Z,10.70
2017-07-10T03:13:50.390Z,11.40
2017-07-10T03:16:18.531Z,10.57
2017-07-10T03:18:46.711Z,11.60
2017-07-10T03:21:14.851Z,12.37
2017-07-10T03:23:43.820Z,9.10
2017-07-10T03:26:11.969Z,11.03
2017-07-10T03:28:40.118Z,9.53
2017-07-10T03:31:08.370Z,8.63
2017-07-10T03:33:37.278Z,9.77
2017-07-10T03:36:05.438Z,11.33
2017-07-10T03:38:34.500Z,8.47
2017-07-10T03:41:02.656Z,9.17
2017-07-10T03:43:30.803Z,10.83
2017-07-10T03:45:58.968Z,11.17
2017-07-10T03:48:27.095Z,9.63
2017-07-10T03:50:56.012Z,10.07
2017-07-10T03:53:24.218Z,9.30
2017-07-10T03:55:52.357Z,8.80
2017-07-10T03:58:20.503Z,8.63
2017-07-10T04:00:48.683Z,9.80
2017-07-10T04:03:16.830Z,16.37
2017-07-10T04:05:44.980Z,13.57
2017-07-10T04:08:13.144Z,19.70
2017-07-10T04:10:41.280Z,16.93
2017-07-10T04:13:10.227Z,22.20
2017-07-10T04:15:38.371Z,15.93
2017-07-10T04:18:06.537Z,13.37
2017-07-10T04:20:34.724Z,14.53
2017-07-10T04:23:02.868Z,14.50
2017-07-10T04:25:31.035Z,13.23
2017-07-10T04:27:59.965Z,18.43
2017-07-10T04:30:28.154Z,16.77
2017-07-10T04:32:56.328Z,17.93
2017-07-10T04:35:24.593Z,12.80
2017-07-10T04:37:52.739Z,12.03
2017-07-10T04:40:20.863Z,11.63
2017-07-10T04:42:49.025Z,9.70
2017-07-10T04:45:17.187Z,15.40
2017-07-10T04:47:45.354Z,13.57
2017-07-10T04:50:13.523Z,12.47
2017-07-10T04:52:41.691Z,9.63
2017-07-10T04:55:09.846Z,10.67
2017-07-10T04:57:38.000Z,10.73
2017-07-10T05:00:06.951Z,10.90
2017-07-10T05:02:35.105Z,12.57
2017-07-10T05:05:03.252Z,11.83
2017-07-10T05:07:31.480Z,11.30
2017-07-10T05:09:59.627Z,14.00
2017-07-10T05:12:27.788Z,12.00
2017-07-10T05:14:56.047Z,14.47
2017-07-10T05:17:24.196Z,11.00
2017-07-10T05:19:53.122Z,13.13
2017-07-10T05:22:21.262Z,10.20
2017-07-10T05:24:50.170Z,8.47
2017-07-10T05:27:18.359Z,16.30
2017-07-10T05:29:46.525Z,15.93
2017-07-10T05:32:14.683Z,12.00
2017-07-10T05:34:43.622Z,14.00
2017-07-10T05:37:11.762Z,13.37
2017-07-10T05:39:39.918Z,11.47
2017-07-10T05:42:08.071Z,8.60
2017-07-10T05:44:36.266Z,10.67
2017-07-10T05:47:05.192Z,9.37
2017-07-10T05:49:33.342Z,13.37
2017-07-10T05:52:01.546Z,16.27
2017-07-10T05:54:29.683Z,12.07
2017-07-10T05:56:57.880Z,21.70
2017-07-10T05:59:26.037Z,8.53
2017-07-10T06:01:54.186Z,9.50
2017-07-10T06:04:23.136Z,7.73
2017-07-10T06:06:51.303Z,13.83
2017-07-10T06:09:20.281Z,16.37
2017-07-10T06:11:48.452Z,13.10
2017-07-10T06:14:16.598Z,13.13
2017-07-10T06:16:45.526Z,10.50
2017-07-10T06:19:13.749Z,12.70
2017-07-10T06:21:42.678Z,9.10
2017-07-10T06:24:10.837Z,9.83
2017-07-10T06:26:39.033Z,11.77
2017-07-10T06:29:07.186Z,14.57
2017-07-10T06:31:35.349Z,17.00
2017-07-10T06:34:03.579Z,11.13
2017-07-10T06:36:31.730Z,10.20
2017-07-10T06:38:59.893Z,11.23
2017-07-10T06:41:28.079Z,23.03
2017-07-10T06:43:56.234Z,10.17
2017-07-10T06:46:24.384Z,12.43
2017-07-10T06:48:52.508Z,12.03
2017-07-10T06:51:20.662Z,10.73
2017-07-10T06:53:48.851Z,14.53
2017-07-10T06:56:16.989Z,12.80
2017-07-10T06:58:45.140Z,13.90
2017-07-10T07:01:14.081Z,11.40
2017-07-10T07:03:42.229Z,8.67
2017-07-10T07:06:10.422Z,17.93
2017-07-10T07:08:38.586Z,8.80
2017-07-10T07:11:06.759Z,12.57
2017-07-10T07:13:34.957Z,10.43
2017-07-10T07:16:03.115Z,10.00
2017-07-10T07:18:31.294Z,10.03
2017-07-10T07:20:59.516Z,14.13
2017-07-10T07:23:28.499Z,9.07
2017-07-10T07:25:57.443Z,6.10
2017-07-10T07:28:25.604Z,7.83
2017-07-10T07:30:53.792Z,11.60
2017-07-10T07:33:21.975Z,10.83
2017-07-10T07:35:50.138Z,19.27
2017-07-10T07:38:18.276Z,8.83
2017-07-10T07:40:46.437Z,15.30
2017-07-10T07:43:15.359Z,14.57
2017-07-10T07:45:43.642Z,8.20
2017-07-10T07:48:11.790Z,12.20
2017-07-10T07:50:39.964Z,10.90
2017-07-10T07:53:08.180Z,13.27
2017-07-10T07:55:36.344Z,11.93
2017-07-10T07:58:04.496Z,10.87
2017-07-10T08:00:32.677Z,22.27
2017-07-10T08:03:00.833Z,13.80
2017-07-10T08:05:29.011Z,10.83
2017-07-10T08:07:57.211Z,15.70
2017-07-10T08:10:25.363Z,8.47
2017-07-10T08:12:53.494Z,13.13
2017-07-10T08:15:22.461Z,9.97
2017-07-10T08:17:50.614Z,12.00
2017-07-10T08:20:18.770Z,6.77
2017-07-10T08:22:47.109Z,8.17
2017-07-10T08:25:16.044Z,8.63
2017-07-10T08:27:44.210Z,15.57
2017-07-10T08:30:12.380Z,11.07
2017-07-10T08:32:40.607Z,17.47
2017-07-10T08:35:08.773Z,12.67
2017-07-10T08:37:36.940Z,10.20
2017-07-10T08:40:05.419Z,11.83
2017-07-10T08:42:33.561Z,14.70
2017-07-10T08:45:01.753Z,9.93
2017-07-10T08:47:29.954Z,10.07
2017-07-10T08:49:58.098Z,12.73
2017-07-10T08:52:26.273Z,7.70
2017-07-10T08:54:54.470Z,6.47
2017-07-10T08:57:22.632Z,9.20
2017-07-10T08:59:50.784Z,7.60
2017-07-10T09:02:18.978Z,8.47
2017-07-10T09:04:47.155Z,11.63
2017-07-10T09:07:15.400Z,14.43
2017-07-10T09:09:43.600Z,10.10
2017-07-10T09:12:11.863Z,8.07
2017-07-10T09:14:40.064Z,7.43
2017-07-10T09:17:08.216Z,11.10
2017-07-10T09:19:36.367Z,8.90
2017-07-10T09:22:04.677Z,6.83
2017-07-10T09:24:32.946Z,9.40
2017-07-10T09:27:01.100Z,7.27
2017-07-10T09:29:29.294Z,10.80
2017-07-10T09:31:57.441Z,5.13
2017-07-10T09:34:25.608Z,6.87
2017-07-10T09:36:53.783Z,7.23
2017-07-10T09:39:21.966Z,10.87
2017-07-10T09:41:50.130Z,6.70
2017-07-10T09:44:18.312Z,6.80
2017-07-10T09:46:46.501Z,5.50
2017-07-10T09:49:14.704Z,10.30
2017-07-10T09:51:43.624Z,6.60
2017-07-10T09:54:11.897Z,6.43
2017-07-10T09:56:40.072Z,13.47
2017-07-10T09:59:08.258Z,8.93
2017-07-10T10:01:36.430Z,8.33
2017-07-10T10:04:04.577Z,6.37
2017-07-10T10:06:32.751Z,7.07
2017-07-10T10:09:00.927Z,6.80
2017-07-10T10:11:29.069Z,5.23
2017-07-10T10:13:58.314Z,7.00
2017-07-10T10:16:26.492Z,7.43
2017-07-10T10:18:54.672Z,7.97
2017-07-10T10:21:22.912Z,7.27
2017-07-10T10:23:51.083Z,6.97
2017-07-10T10:26:20.049Z,4.97
2017-07-10T10:28:48.204Z,10.33
2017-07-10T10:31:16.491Z,5.20
2017-07-10T10:33:44.685Z,6.03
2017-07-10T10:36:12.843Z,8.10
2017-07-10T10:38:40.997Z,6.87
2017-07-10T10:41:09.178Z,5.50
2017-07-10T10:43:37.344Z,6.40
2017-07-10T10:46:05.538Z,9.90
2017-07-10T10:48:33.720Z,9.40
2017-07-10T10:51:01.961Z,7.67
2017-07-10T10:53:30.129Z,5.60
2017-07-10T10:55:58.375Z,9.03
2017-07-10T10:58:26.567Z,6.57
2017-07-10T11:00:54.735Z,9.03
2017-07-10T11:03:22.903Z,8.07
2017-07-10T11:05:51.088Z,7.43
2017-07-10T11:08:19.231Z,18.90
2017-07-10T11:10:47.490Z,8.00
2017-07-10T11:13:16.430Z,10.63
2017-07-10T11:15:44.610Z,15.80
2017-07-10T11:18:12.784Z,7.23
2017-07-10T11:20:40.982Z,16.73
2017-07-10T11:23:09.148Z,9.90
2017-07-10T11:25:37.294Z,7.67
2017-07-10T11:28:05.494Z,8.23
2017-07-10T11:30:33.766Z,5.90
2017-07-10T11:33:01.930Z,6.57
2017-07-10T11:35:30.152Z,9.63
2017-07-10T11:37:59.092Z,11.83
2017-07-10T11:40:27.303Z,7.43
2017-07-10T11:42:55.448Z,10.80
2017-07-10T11:45:23.619Z,8.37
2017-07-10T11:47:51.807Z,6.97
2017-07-10T11:50:19.990Z,7.20
2017-07-10T11:52:48.937Z,5.77
2017-07-10T11:55:17.163Z,7.00
2017-07-10T11:57:45.393Z,7.63
2017-07-10T12:00:13.534Z,6.67
2017-07-10T12:02:41.682Z,6.83
2017-07-10T12:05:09.920Z,9.27
2017-07-10T12:07:38.093Z,10.50
2017-07-10T12:10:06.243Z,8.40
2017-07-10T12:12:34.466Z,5.40
2017-07-10T12:15:02.615Z,12.00
2017-07-10T12:17:30.767Z,9.10
2017-07-10T12:19:58.976Z,9.67
2017-07-10T12:22:27.126Z,10.50
2017-07-10T12:24:55.286Z,9.90
2017-07-10T12:27:23.795Z,5.93
2017-07-10T12:29:51.952Z,15.93
2017-07-10T12:32:20.123Z,9.53
2017-07-10T12:34:48.344Z,7.37
2017-07-10T12:37:16.494Z,4.23
2017-07-10T12:39:44.682Z,6.03
2017-07-10T12:42:12.847Z,8.60
2017-07-10T12:44:41.002Z,5.80
2017-07-10T12:47:09.312Z,7.40
2017-07-10T12:49:38.221Z,9.10
2017-07-10T12:52:06.375Z,5.57
2017-07-10T12:54:34.606Z,4.80
2017-07-10T12:57:02.773Z,10.10
2017-07-10T12:59:30.944Z,11.40
2017-07-10T13:01:59.162Z,14.30
2017-07-10T13:04:28.238Z,9.90
2017-07-10T13:06:56.443Z,20.73
2017-07-10T13:09:25.383Z,7.53
2017-07-10T13:11:53.597Z,6.27
2017-07-10T13:14:22.570Z,7.73
2017-07-10T13:16:50.751Z,7.23
2017-07-10T13:19:18.908Z,7.73
2017-07-10T13:21:47.111Z,9.43
2017-07-10T13:24:16.027Z,3.67
2017-07-10T13:26:44.227Z,3.10
2017-07-10T13:29:12.418Z,4.13
2017-07-10T13:31:40.618Z,2.47
2017-07-10T13:34:09.542Z,2.93
2017-07-10T13:36:37.786Z,1.93
2017-07-10T13:39:05.965Z,2.67
2017-07-10T13:41:34.129Z,2.37
2017-07-10T13:44:02.299Z,2.83
2017-07-10T13:46:30.487Z,2.33
2017-07-10T13:48:59.484Z,2.97
2017-07-10T13:51:27.653Z,2.60
2017-07-10T13:53:55.996Z,3.53
2017-07-10T13:56:24.150Z,2.60
2017-07-10T13:58:52.379Z,5.27
2017-07-10T14:01:21.344Z,2.70
2017-07-10T14:03:49.494Z,2.50
2017-07-10T14:06:17.698Z,2.43
2017-07-10T14:08:45.867Z,2.97
2017-07-10T14:11:14.019Z,1.93
2017-07-10T14:13:42.175Z,2.17
2017-07-10T14:16:10.370Z,3.33
2017-07-10T14:18:38.530Z,1.63
2017-07-10T14:21:06.717Z,3.57
2017-07-10T14:23:34.882Z,2.37
2017-07-10T14:26:03.039Z,2.43
2017-07-10T14:28:31.371Z,2.50
2017-07-10T14:31:00.305Z,3.17
2017-07-10T14:33:28.457Z,3.57
2017-07-10T14:35:56.670Z,6.77
2017-07-10T14:38:24.955Z,4.73
2017-07-10T14:40:53.123Z,6.90
2017-07-10T14:43:21.322Z,8.70
2017-07-10T14:45:50.269Z,7.50
2017-07-10T14:48:18.548Z,7.77
2017-07-10T14:50:46.742Z,8.53
2017-07-10T14:53:14.902Z,8.40
2017-07-10T14:55:43.077Z,8.10
2017-07-10T14:58:11.398Z,7.10
2017-07-10T15:00:39.644Z,7.80
2017-07-10T15:03:07.851Z,8.97
2017-07-10T15:05:36.782Z,10.03
2017-07-10T15:08:05.107Z,7.87
2017-07-10T15:10:34.058Z,7.80
2017-07-10T15:13:02.226Z,7.80
2017-07-10T15:15:30.392Z,11.90
2017-07-10T15:17:58.613Z,7.00
2017-07-10T15:20:27.555Z,6.83
2017-07-10T15:22:55.698Z,7.97
2017-07-10T15:25:23.885Z,7.00
2017-07-10T15:27:52.046Z,11.00
2017-07-10T15:30:20.213Z,8.40
2017-07-10T15:32:48.451Z,9.63
2017-07-10T15:35:23.488Z,10.07
2017-07-10T15:37:51.688Z,9.40
2017-07-10T15:40:23.375Z,15.40
2017-07-10T15:43:08.721Z,8.50
2017-07-10T15:45:41.171Z,9.63
2017-07-10T15:48:10.512Z,7.90
2017-07-10T15:50:39.550Z,10.33
2017-07-10T15:53:08.463Z,7.10
2017-07-10T15:55:37.455Z,8.63
2017-07-10T15:58:08.211Z,12.40
2017-07-10T16:00:38.332Z,10.20
2017-07-10T16:03:07.698Z,9.83
2017-07-10T16:05:36.787Z,9.53
2017-07-10T16:08:06.160Z,11.27
2017-07-10T16:10:35.749Z,7.83
2017-07-10T16:13:04.507Z,13.93
2017-07-10T16:15:33.879Z,11.13
2017-07-10T16:18:04.354Z,11.57
2017-07-10T16:20:33.842Z,7.97
2017-07-10T16:23:03.226Z,11.40
2017-07-10T16:25:32.486Z,10.50
2017-07-10T16:28:00.906Z,9.00
2017-07-10T16:30:30.564Z,9.57
2017-07-10T16:32:59.830Z,6.77
2017-07-10T16:35:29.298Z,6.27
2017-07-10T16:37:57.638Z,6.57
2017-07-10T16:40:28.558Z,6.90
2017-07-10T16:42:56.864Z,6.20
2017-07-10T16:45:27.119Z,6.67
2017-07-10T16:47:57.271Z,7.17
2017-07-10T16:50:26.751Z,7.20
2017-07-10T16:52:57.159Z,7.10
2017-07-10T16:55:26.823Z,8.50
2017-07-10T16:58:05.305Z,8.53
2017-07-10T17:00:35.324Z,6.73
2017-07-10T17:03:05.432Z,8.90
2017-07-10T17:05:36.943Z,8.43
2017-07-10T17:08:05.658Z,9.17
2017-07-10T17:10:34.032Z,7.53
2017-07-10T17:13:04.579Z,6.30
2017-07-10T17:15:37.249Z,6.40
2017-07-10T17:18:06.103Z,7.13
2017-07-10T17:20:37.263Z,6.13
2017-07-10T17:23:30.539Z,6.60
2017-07-10T17:26:06.361Z,6.93
2017-07-10T17:28:38.493Z,5.90
2017-07-10T17:31:12.583Z,6.43
2017-07-10T17:33:46.231Z,5.93
2017-07-10T17:36:19.681Z,5.97
2017-07-10T17:38:54.783Z,8.30
2017-07-10T17:41:25.839Z,7.03
2017-07-10T17:43:56.479Z,9.27
2017-07-10T17:46:31.172Z,18.30
2017-07-10T17:49:01.691Z,32.97
2017-07-10T17:51:33.701Z,17.93
2017-07-10T17:54:02.114Z,12.87
2017-07-10T17:56:30.761Z,12.73
2017-07-10T17:59:01.994Z,8.20
2017-07-10T18:01:32.499Z,8.70
2017-07-10T18:04:03.700Z,12.90
2017-07-10T18:06:33.720Z,8.67
2017-07-10T18:09:03.823Z,6.30
2017-07-10T18:11:35.878Z,9.60
2017-07-10T18:14:06.646Z,13.27
2017-07-10T18:16:36.538Z,7.03
2017-07-10T18:19:09.934Z,7.40
2017-07-10T18:21:41.270Z,7.73
2017-07-10T18:24:12.581Z,8.97
2017-07-10T18:26:43.347Z,8.47
2017-07-10T18:29:12.804Z,10.60
2017-07-10T18:31:43.052Z,7.40
2017-07-10T18:34:16.773Z,8.67
2017-07-10T18:36:51.958Z,8.93
2017-07-10T18:39:24.318Z,7.00
2017-07-10T18:41:54.576Z,7.07
2017-07-10T18:44:25.519Z,9.10
2017-07-10T18:46:54.685Z,9.17
2017-07-10T18:49:23.857Z,10.27
2017-07-10T18:51:54.304Z,9.10
2017-07-10T18:54:27.711Z,9.07
2017-07-10T18:56:59.557Z,8.93
2017-07-10T18:59:30.735Z,9.67
2017-07-10T19:02:01.301Z,13.47
2017-07-10T19:04:39.250Z,11.83
2017-07-10T19:07:10.648Z,8.40
2017-07-10T19:09:42.735Z,25.37
2017-07-10T19:12:15.604Z,11.57
2017-07-10T19:14:46.525Z,8.53
2017-07-10T19:17:17.587Z,9.77
2017-07-10T19:19:48.135Z,9.33
2017-07-10T19:22:18.091Z,11.33
2017-07-10T19:24:47.204Z,11.50
2017-07-10T19:27:17.005Z,11.23
2017-07-10T19:29:49.344Z,7.83
2017-07-10T19:35:17.304Z,7.57
2017-07-10T19:37:45.637Z,9.93
2017-07-10T19:40:13.888Z,6.73
2017-07-10T19:42:42.189Z,6.37
2017-07-10T19:45:10.477Z,8.37
2017-07-10T19:47:38.643Z,9.30
2017-07-10T19:50:06.852Z,6.67
2017-07-10T19:52:35.024Z,8.13
2017-07-10T19:55:04.004Z,9.43
2017-07-10T19:57:32.246Z,8.93
2017-07-10T20:00:00.412Z,11.30
2017-07-10T20:02:28.605Z,7.57
2017-07-10T20:04:56.797Z,6.70
2017-07-10T20:07:24.971Z,9.60
2017-07-10T20:09:53.181Z,10.13
2017-07-10T20:12:22.130Z,11.03
2017-07-10T20:14:50.291Z,8.67
2017-07-10T20:17:19.483Z,10.17
2017-07-10T20:19:47.689Z,11.50
2017-07-10T20:22:15.890Z,7.20
2017-07-10T20:24:44.069Z,18.83
2017-07-10T20:27:12.262Z,11.90
2017-07-10T20:29:40.546Z,8.97
2017-07-10T20:32:08.720Z,10.83
2017-07-10T20:34:36.918Z,10.90
2017-07-10T20:37:05.099Z,7.90
2017-07-10T20:39:33.381Z,8.30
2017-07-10T20:42:01.620Z,8.47
2017-07-10T20:44:29.770Z,9.77
2017-07-10T20:46:57.962Z,20.33
2017-07-10T20:49:26.150Z,12.67
2017-07-10T20:51:54.368Z,9.07
2017-07-10T20:54:23.357Z,6.33
2017-07-10T20:56:51.497Z,7.93
2017-07-10T20:59:19.708Z,6.13
2017-07-10T21:01:47.884Z,6.97
2017-07-10T21:04:16.809Z,9.03
2017-07-10T21:06:44.968Z,7.00
2017-07-10T21:09:13.193Z,6.90
2017-07-10T21:11:44.031Z,8.17
2017-07-10T21:14:13.068Z,7.97
2017-07-10T21:16:41.284Z,7.33
2017-07-10T21:19:09.573Z,6.67
2017-07-10T21:21:37.911Z,6.73
2017-07-10T21:24:06.301Z,6.67
2017-07-10T21:26:34.544Z,8.87
2017-07-10T21:29:02.767Z,6.10
2017-07-10T21:31:30.991Z,5.97
2017-07-10T21:33:59.359Z,8.83
2017-07-10T21:36:27.611Z,6.20
2017-07-10T21:38:55.984Z,6.53
2017-07-10T21:41:25.557Z,7.60
2017-07-10T21:43:54.021Z,9.37
2017-07-10T21:46:22.642Z,5.90
2017-07-10T21:48:50.931Z,7.37
2017-07-10T21:51:19.248Z,8.13
2017-07-10T21:53:47.549Z,9.57
2017-07-10T21:56:15.686Z,7.33
2017-07-10T21:58:43.849Z,8.57
2017-07-10T22:01:12.789Z,11.97
2017-07-10T22:03:41.053Z,6.37
2017-07-10T22:06:09.406Z,6.47
2017-07-10T22:08:37.588Z,6.33
2017-07-10T22:11:07.063Z,9.17
2017-07-10T22:13:35.209Z,8.80
2017-07-10T22:16:03.390Z,6.63
2017-07-10T22:18:31.574Z,6.93
2017-07-10T22:20:59.731Z,6.10
2017-07-10T22:23:27.922Z,5.73
2017-07-10T22:25:56.103Z,5.30
2017-07-10T22:28:25.109Z,5.90
2017-07-10T22:30:53.280Z,6.97
2017-07-10T22:33:22.191Z,8.20
2017-07-10T22:35:50.384Z,10.23
2017-07-10T22:38:18.535Z,6.30
2017-07-10T22:40:46.705Z,6.73
2017-07-10T22:43:14.871Z,6.13
2017-07-10T22:45:43.191Z,5.47
2017-07-10T22:48:11.360Z,8.40
2017-07-10T22:50:39.617Z,5.50
2017-07-10T22:53:07.812Z,6.13
2017-07-10T22:55:35.988Z,9.83
2017-07-10T22:58:04.202Z,8.23
2017-07-10T23:00:32.402Z,6.47
2017-07-10T23:03:00.686Z,5.80
2017-07-10T23:05:28.864Z,6.13
2017-07-10T23:07:57.026Z,6.23
2017-07-10T23:10:25.184Z,6.53
2017-07-10T23:12:53.414Z,12.20
2017-07-10T23:15:21.634Z,11.43
2017-07-10T23:17:49.821Z,10.30
2017-07-10T23:20:18.008Z,5.83
2017-07-10T23:22:46.234Z,8.07
2017-07-10T23:25:14.406Z,7.70
2017-07-10T23:27:43.350Z,6.17
2017-07-10T23:30:11.529Z,6.83
2017-07-10T23:32:39.747Z,7.57
2017-07-10T23:35:08.713Z,7.33
2017-07-10T23:37:37.005Z,7.70
2017-07-10T23:40:05.202Z,10.10
2017-07-10T23:42:33.367Z,8.73
2017-07-10T23:45:02.338Z,8.20
2017-07-10T23:47:30.506Z,6.77
2017-07-10T23:49:58.706Z,9.83
2017-07-10T23:52:26.883Z,9.73
2017-07-10T23:54:55.072Z,11.80
2017-07-10T23:57:23.271Z,6.53
2017-07-10T23:59:51.436Z,8.63
